createdAt,value
2022-11-14T00:00:43.220Z,815.84
2022-11-14T00:01:43.231Z,815.81
2022-11-14T00:02:43.328Z,815.79
2022-11-14T00:03:43.246Z,815.82
2022-11-14T00:04:43.258Z,815.80
2022-11-14T00:05:43.264Z,815.79
2022-11-14T00:06:43.341Z,815.81
2022-11-14T00:07:43.285Z,815.81
2022-11-14T00:08:43.295Z,815.79
2022-11-14T00:09:43.310Z,815.77
2022-11-14T00:10:43.314Z,815.78
2022-11-14T00:11:43.330Z,815.79
2022-11-14T00:12:43.331Z,815.79
2022-11-14T00:13:43.338Z,815.76
2022-11-14T00:14:43.350Z,815.80
2022-11-14T00:15:43.468Z,815.84
2022-11-14T00:16:43.371Z,815.83
2022-11-14T00:17:43.377Z,815.78
2022-11-14T00:18:43.385Z,815.81
2022-11-14T00:19:43.393Z,815.78
2022-11-14T00:20:43.405Z,815.78
2022-11-14T00:21:43.418Z,815.79
2022-11-14T00:22:43.422Z,815.77
2022-11-14T00:23:43.428Z,815.80
2022-11-14T00:24:43.439Z,815.79
2022-11-14T00:25:43.447Z,815.79
2022-11-14T00:26:43.458Z,815.76
2022-11-14T00:27:43.469Z,815.71
2022-11-14T00:28:43.478Z,815.71
2022-11-14T00:29:43.483Z,815.71
2022-11-14T00:30:43.493Z,815.74
2022-11-14T00:31:43.618Z,815.70
2022-11-14T00:32:43.525Z,815.69
2022-11-14T00:33:43.535Z,815.66
2022-11-14T00:34:43.551Z,815.69
2022-11-14T00:35:43.562Z,815.71
2022-11-14T00:36:43.554Z,815.70
2022-11-14T00:37:43.563Z,815.68
2022-11-14T00:38:43.564Z,815.70
2022-11-14T00:39:43.576Z,815.70
2022-11-14T00:40:43.586Z,815.70
2022-11-14T00:41:43.597Z,815.72
2022-11-14T00:42:43.605Z,815.69
2022-11-14T00:43:43.614Z,815.69
2022-11-14T00:44:43.621Z,815.69
2022-11-14T00:45:43.630Z,815.67
2022-11-14T00:46:43.651Z,815.69
2022-11-14T00:47:43.773Z,815.67
2022-11-14T00:48:43.661Z,815.68
2022-11-14T00:49:43.668Z,815.66
2022-11-14T00:50:43.684Z,815.66
2022-11-14T00:51:43.685Z,815.62
2022-11-14T00:52:43.698Z,815.66
2022-11-14T00:53:43.701Z,815.61
2022-11-14T00:54:43.815Z,815.62
2022-11-14T00:55:43.721Z,815.65
2022-11-14T00:56:43.734Z,815.63
2022-11-14T00:57:43.740Z,815.56
2022-11-14T00:58:43.755Z,815.59
2022-11-14T00:59:43.756Z,815.57
2022-11-14T01:00:43.852Z,815.56
2022-11-14T01:01:43.776Z,815.54
2022-11-14T01:02:43.786Z,815.55
2022-11-14T01:03:43.911Z,815.45
2022-11-14T01:04:43.809Z,815.49
2022-11-14T01:05:43.813Z,815.50
2022-11-14T01:06:43.836Z,815.46
2022-11-14T01:07:43.831Z,815.49
2022-11-14T01:08:43.938Z,815.44
2022-11-14T01:09:43.854Z,815.43
2022-11-14T01:10:43.867Z,815.44
2022-11-14T01:11:43.866Z,815.42
2022-11-14T01:12:43.880Z,815.39
2022-11-14T01:13:43.890Z,815.41
2022-11-14T01:14:43.896Z,815.42
2022-11-14T01:15:43.904Z,815.42
2022-11-14T01:16:43.916Z,815.43
2022-11-14T01:17:43.921Z,815.41
2022-11-14T01:18:43.936Z,815.37
2022-11-14T01:19:44.057Z,815.42
2022-11-14T01:20:43.950Z,815.39
2022-11-14T01:21:43.958Z,815.39
2022-11-14T01:22:43.968Z,815.42
2022-11-14T01:23:43.976Z,815.42
2022-11-14T01:24:43.987Z,815.40
2022-11-14T01:25:43.999Z,815.40
2022-11-14T01:26:44.004Z,815.39
2022-11-14T01:27:44.016Z,815.36
2022-11-14T01:28:44.023Z,815.36
2022-11-14T01:29:44.033Z,815.37
2022-11-14T01:30:44.051Z,815.37
2022-11-14T01:31:44.050Z,815.36
2022-11-14T01:32:44.060Z,815.32
2022-11-14T01:33:44.067Z,815.32
2022-11-14T01:34:44.082Z,815.31
2022-11-14T01:35:44.198Z,815.32
2022-11-14T01:36:44.101Z,815.29
2022-11-14T01:37:44.106Z,815.28
2022-11-14T01:38:44.114Z,815.27
2022-11-14T01:39:44.122Z,815.24
2022-11-14T01:40:44.137Z,815.26
2022-11-14T01:41:44.152Z,815.26
2022-11-14T01:42:44.153Z,815.26
2022-11-14T01:43:44.179Z,815.24
2022-11-14T01:44:44.170Z,815.26
2022-11-14T01:45:44.178Z,815.23
2022-11-14T01:46:44.185Z,815.27
2022-11-14T01:47:44.194Z,815.22
2022-11-14T01:48:44.204Z,815.25
2022-11-14T01:49:44.217Z,815.22
2022-11-14T01:50:44.239Z,815.20
2022-11-14T01:51:44.345Z,815.20
2022-11-14T01:52:44.237Z,815.22
2022-11-14T01:53:44.250Z,815.22
2022-11-14T01:54:44.256Z,815.15
2022-11-14T01:55:44.267Z,815.16
2022-11-14T01:56:44.288Z,815.18
2022-11-14T01:57:44.290Z,815.11
2022-11-14T01:58:44.291Z,815.16
2022-11-14T01:59:44.303Z,815.13
2022-11-14T02:00:44.313Z,815.09
2022-11-14T02:01:44.380Z,815.09
2022-11-14T02:02:44.428Z,815.08
2022-11-14T02:03:44.342Z,815.07
2022-11-14T02:04:44.345Z,815.06
2022-11-14T02:05:44.361Z,815.04
2022-11-14T02:06:44.366Z,815.06
2022-11-14T02:07:44.491Z,815.04
2022-11-14T02:08:44.383Z,815.02
2022-11-14T02:09:44.395Z,815.03
2022-11-14T02:10:44.401Z,815.05
2022-11-14T02:11:44.412Z,815.03
2022-11-14T02:12:44.427Z,814.99
2022-11-14T02:13:44.430Z,814.99
2022-11-14T02:14:44.437Z,814.94
2022-11-14T02:15:44.448Z,814.99
2022-11-14T02:16:55.706Z,814.98
2022-11-14T02:17:44.467Z,814.93
2022-11-14T02:18:44.474Z,814.94
2022-11-14T02:19:44.486Z,814.97
2022-11-14T02:20:44.492Z,814.92
2022-11-14T02:21:44.526Z,814.93
2022-11-14T02:22:44.511Z,814.95
2022-11-14T02:23:44.633Z,814.93
2022-11-14T02:24:44.532Z,814.84
2022-11-14T02:25:44.540Z,814.86
2022-11-14T02:26:44.550Z,814.87
2022-11-14T02:27:44.556Z,814.85
2022-11-14T02:28:44.567Z,814.86
2022-11-14T02:29:44.574Z,814.80
2022-11-14T02:30:44.582Z,814.86
2022-11-14T02:31:44.594Z,814.85
2022-11-14T02:33:09.332Z,814.86
2022-11-14T02:33:44.613Z,814.86
2022-11-14T02:34:44.617Z,814.82
2022-11-14T02:35:44.632Z,814.83
2022-11-14T02:36:44.656Z,814.80
2022-11-14T02:37:44.647Z,814.79
2022-11-14T02:38:44.654Z,814.84
2022-11-14T02:39:44.789Z,814.79
2022-11-14T02:40:44.673Z,814.82
2022-11-14T02:41:44.683Z,814.78
2022-11-14T02:42:44.691Z,814.80
2022-11-14T02:43:44.702Z,814.83
2022-11-14T02:44:44.709Z,814.82
2022-11-14T02:45:44.724Z,814.80
2022-11-14T02:46:44.731Z,814.79
2022-11-14T02:47:44.741Z,814.79
2022-11-14T02:48:44.749Z,814.79
2022-11-14T02:49:44.758Z,814.80
2022-11-14T02:50:44.785Z,814.78
2022-11-14T02:51:44.780Z,814.77
2022-11-14T02:52:44.783Z,814.80
2022-11-14T02:53:44.794Z,814.80
2022-11-14T02:54:44.800Z,814.80
2022-11-14T02:55:44.929Z,814.81
2022-11-14T02:56:44.820Z,814.81
2022-11-14T02:57:44.833Z,814.85
2022-11-14T02:58:44.838Z,814.83
2022-11-14T02:59:44.851Z,814.85
2022-11-14T03:01:13.544Z,814.83
2022-11-14T03:01:44.921Z,814.83
2022-11-14T03:02:44.872Z,814.85
2022-11-14T03:03:44.888Z,814.85
2022-11-14T03:04:44.894Z,814.89
2022-11-14T03:05:44.903Z,814.90
2022-11-14T03:06:44.997Z,814.88
2022-11-14T03:07:44.921Z,814.85
2022-11-14T03:08:44.928Z,814.89
2022-11-14T03:09:44.938Z,814.88
2022-11-14T03:10:44.948Z,814.93
2022-11-14T03:11:45.069Z,814.94
2022-11-14T03:12:44.964Z,814.92
2022-11-14T03:13:44.978Z,814.97
2022-11-14T03:14:44.986Z,814.98
2022-11-14T03:15:44.994Z,814.96
2022-11-14T03:16:45.003Z,814.97
2022-11-14T03:17:45.013Z,815.02
2022-11-14T03:18:45.019Z,815.03
2022-11-14T03:19:45.032Z,815.02
2022-11-14T03:20:45.040Z,815.03
2022-11-14T03:21:45.057Z,815.05
2022-11-14T03:22:45.057Z,815.08
2022-11-14T03:23:45.068Z,815.08
2022-11-14T03:24:45.074Z,815.06
2022-11-14T03:25:45.085Z,815.08
2022-11-14T03:26:45.108Z,815.09
2022-11-14T03:27:45.220Z,815.11
2022-11-14T03:28:45.109Z,815.10
2022-11-14T03:29:45.121Z,815.10
2022-11-14T03:30:45.130Z,815.14
2022-11-14T03:31:45.138Z,815.12
2022-11-14T03:32:45.147Z,815.15
2022-11-14T03:33:45.159Z,815.16
2022-11-14T03:34:45.175Z,815.16
2022-11-14T03:35:45.177Z,815.13
2022-11-14T03:36:45.185Z,815.12
2022-11-14T03:37:45.192Z,815.14
2022-11-14T03:38:45.203Z,815.12
2022-11-14T03:39:45.212Z,815.13
2022-11-14T03:40:45.220Z,815.16
2022-11-14T03:41:45.231Z,815.15
2022-11-14T03:42:45.234Z,815.17
2022-11-14T03:43:45.361Z,815.19
2022-11-14T03:44:45.256Z,815.23
2022-11-14T03:45:45.267Z,815.24
2022-11-14T03:46:45.272Z,815.21
2022-11-14T03:47:45.284Z,815.25
2022-11-14T03:48:45.296Z,815.24
2022-11-14T03:49:45.306Z,815.26
2022-11-14T03:50:45.340Z,815.30
2022-11-14T03:51:45.318Z,815.33
2022-11-14T03:52:45.324Z,815.34
2022-11-14T03:53:45.336Z,815.37
2022-11-14T03:54:45.343Z,815.37
2022-11-14T03:55:45.353Z,815.37
2022-11-14T03:56:45.368Z,815.40
2022-11-14T03:57:45.372Z,815.36
2022-11-14T03:58:45.375Z,815.45
2022-11-14T03:59:45.502Z,815.42
2022-11-14T04:00:45.453Z,815.43
2022-11-14T04:01:45.408Z,815.42
2022-11-14T04:02:45.410Z,815.42
2022-11-14T04:03:45.421Z,815.42
2022-11-14T04:04:45.432Z,815.37
2022-11-14T04:05:45.440Z,815.42
2022-11-14T04:06:45.534Z,815.32
2022-11-14T04:07:45.457Z,815.34
2022-11-14T04:08:45.461Z,815.32
2022-11-14T04:09:45.480Z,815.36
2022-11-14T04:10:45.477Z,815.36
2022-11-14T04:11:45.489Z,815.37
2022-11-14T04:12:45.500Z,815.35
2022-11-14T04:13:45.506Z,815.39
2022-11-14T04:14:45.511Z,815.37
2022-11-14T04:15:45.636Z,815.33
2022-11-14T04:16:45.527Z,815.31
2022-11-14T04:17:45.537Z,815.28
2022-11-14T04:18:45.543Z,815.32
2022-11-14T04:19:45.555Z,815.32
2022-11-14T04:20:45.557Z,815.31
2022-11-14T04:21:45.569Z,815.32
2022-11-14T04:22:45.573Z,815.34
2022-11-14T04:23:45.594Z,815.37
2022-11-14T04:24:45.593Z,815.34
2022-11-14T04:25:45.602Z,815.34
2022-11-14T04:26:45.606Z,815.32
2022-11-14T04:27:45.618Z,815.34
2022-11-14T04:28:45.622Z,815.33
2022-11-14T04:29:45.631Z,815.31
2022-11-14T04:30:45.637Z,815.31
2022-11-14T04:31:45.760Z,815.30
2022-11-14T04:32:45.653Z,815.29
2022-11-14T04:33:45.664Z,815.27
2022-11-14T04:34:45.668Z,815.27
2022-11-14T04:35:45.682Z,815.32
2022-11-14T04:36:45.691Z,815.33
2022-11-14T04:37:45.695Z,815.28
2022-11-14T04:38:45.701Z,815.32
2022-11-14T04:39:45.710Z,815.29
2022-11-14T04:40:45.716Z,815.30
2022-11-14T04:41:45.725Z,815.31
2022-11-14T04:42:45.730Z,815.30
2022-11-14T04:43:50.655Z,815.31
2022-11-14T04:44:45.789Z,815.28
2022-11-14T04:45:45.757Z,815.28
2022-11-14T04:46:45.782Z,815.28
2022-11-14T04:47:45.882Z,815.24
2022-11-14T04:48:45.777Z,815.24
2022-11-14T04:49:45.786Z,815.19
2022-11-14T04:50:45.789Z,815.17
2022-11-14T04:51:45.801Z,815.17
2022-11-14T04:52:45.805Z,815.16
2022-11-14T04:53:45.818Z,815.19
2022-11-14T04:54:45.821Z,815.16
2022-11-14T04:55:45.830Z,815.11
2022-11-14T04:56:45.835Z,815.19
2022-11-14T04:57:45.850Z,815.20
2022-11-14T04:58:45.848Z,815.18
2022-11-14T04:59:45.858Z,815.17
2022-11-14T05:00:45.867Z,815.17
2022-11-14T05:01:45.925Z,815.14
2022-11-14T05:02:45.882Z,815.11
2022-11-14T05:03:45.909Z,815.13
2022-11-14T05:04:45.896Z,815.14
2022-11-14T05:05:45.904Z,815.12
2022-11-14T05:06:45.988Z,815.09
2022-11-14T05:07:45.921Z,815.14
2022-11-14T05:08:45.948Z,815.11
2022-11-14T05:09:45.940Z,815.10
2022-11-14T05:10:45.938Z,815.12
2022-11-14T05:11:45.947Z,815.12
2022-11-14T05:12:45.954Z,815.08
2022-11-14T05:13:45.987Z,815.06
2022-11-14T05:14:45.967Z,815.04
2022-11-14T05:15:45.989Z,815.08
2022-11-14T05:16:45.984Z,815.07
2022-11-14T05:17:45.992Z,815.06
2022-11-14T05:18:47.182Z,815.07
2022-11-14T05:19:46.025Z,815.07
2022-11-14T05:20:46.015Z,815.07
2022-11-14T05:21:46.035Z,815.07
2022-11-14T05:22:46.025Z,815.07
2022-11-14T05:23:46.036Z,815.06
2022-11-14T05:24:46.044Z,815.06
2022-11-14T05:25:46.051Z,815.09
2022-11-14T05:26:46.057Z,815.07
2022-11-14T05:27:46.065Z,815.10
2022-11-14T05:28:46.074Z,815.08
2022-11-14T05:29:46.080Z,815.08
2022-11-14T05:30:46.085Z,815.08
2022-11-14T05:31:46.097Z,815.08
2022-11-14T05:32:46.101Z,815.05
2022-11-14T05:33:46.110Z,815.08
2022-11-14T05:34:46.115Z,815.06
2022-11-14T05:35:46.141Z,815.10
2022-11-14T05:36:46.131Z,815.09
2022-11-14T05:37:46.139Z,815.10
2022-11-14T05:38:46.143Z,815.11
2022-11-14T05:39:46.153Z,815.16
2022-11-14T05:40:46.157Z,815.12
2022-11-14T05:41:46.168Z,815.11
2022-11-14T05:42:46.174Z,815.15
2022-11-14T05:43:46.187Z,815.15
2022-11-14T05:44:46.200Z,815.21
2022-11-14T05:45:46.208Z,815.22
2022-11-14T05:46:46.200Z,815.20
2022-11-14T05:47:46.217Z,815.21
2022-11-14T05:48:46.218Z,815.22
2022-11-14T05:49:46.225Z,815.23
2022-11-14T05:50:46.233Z,815.19
2022-11-14T05:51:46.258Z,815.19
2022-11-14T05:52:46.246Z,815.16
2022-11-14T05:53:46.254Z,815.16
2022-11-14T05:54:46.267Z,815.15
2022-11-14T05:55:46.276Z,815.15
2022-11-14T05:56:46.275Z,815.17
2022-11-14T05:57:46.284Z,815.17
2022-11-14T05:58:46.288Z,815.20
2022-11-14T05:59:46.399Z,815.20
2022-11-14T06:00:52.183Z,815.20
2022-11-14T06:01:46.364Z,815.17
2022-11-14T06:02:46.319Z,815.23
2022-11-14T06:03:46.325Z,815.19
2022-11-14T06:04:46.332Z,815.20
2022-11-14T06:05:46.338Z,815.21
2022-11-14T06:06:46.384Z,815.21
2022-11-14T06:07:46.375Z,815.23
2022-11-14T06:08:46.360Z,815.22
2022-11-14T06:09:46.369Z,815.27
2022-11-14T06:10:46.381Z,815.30
2022-11-14T06:11:46.382Z,815.29
2022-11-14T06:12:46.393Z,815.30
2022-11-14T06:13:46.396Z,815.36
2022-11-14T06:14:46.409Z,815.33
2022-11-14T06:15:46.412Z,815.33
2022-11-14T06:16:46.422Z,815.34
2022-11-14T06:17:46.424Z,815.37
2022-11-14T06:18:46.435Z,815.38
2022-11-14T06:19:46.440Z,815.39
2022-11-14T06:20:46.455Z,815.36
2022-11-14T06:21:46.451Z,815.40
2022-11-14T06:22:46.462Z,815.42
2022-11-14T06:23:46.484Z,815.45
2022-11-14T06:24:46.473Z,815.46
2022-11-14T06:25:46.478Z,815.49
2022-11-14T06:26:46.488Z,815.49
2022-11-14T06:27:46.493Z,815.49
2022-11-14T06:28:46.516Z,815.50
2022-11-14T06:29:46.508Z,815.55
2022-11-14T06:30:46.529Z,815.60
2022-11-14T06:31:46.518Z,815.60
2022-11-14T06:32:46.528Z,815.61
2022-11-14T06:33:46.539Z,815.67
2022-11-14T06:34:46.542Z,815.67
2022-11-14T06:35:46.553Z,815.71
2022-11-14T06:36:46.561Z,815.75
2022-11-14T06:37:46.568Z,815.73
2022-11-14T06:38:46.568Z,815.79
2022-11-14T06:39:46.600Z,815.80
2022-11-14T06:40:46.582Z,815.83
2022-11-14T06:41:46.587Z,815.85
2022-11-14T06:42:46.596Z,815.82
2022-11-14T06:43:46.602Z,815.80
2022-11-14T06:44:46.610Z,815.81
2022-11-14T06:45:46.617Z,815.79
2022-11-14T06:46:46.622Z,815.76
2022-11-14T06:47:46.627Z,815.77
2022-11-14T06:48:46.645Z,815.73
2022-11-14T06:49:46.640Z,815.77
2022-11-14T06:50:46.651Z,815.77
2022-11-14T06:51:46.657Z,815.76
2022-11-14T06:52:46.662Z,815.76
2022-11-14T06:53:46.672Z,815.78
2022-11-14T06:54:46.682Z,815.78
2022-11-14T06:55:46.701Z,815.77
2022-11-14T06:56:46.692Z,815.75
2022-11-14T06:57:46.697Z,815.75
2022-11-14T06:58:46.702Z,815.79
2022-11-14T06:59:46.709Z,815.78
2022-11-14T07:00:46.721Z,815.82
2022-11-14T07:01:46.729Z,815.86
2022-11-14T07:02:46.783Z,815.89
2022-11-14T07:03:46.739Z,815.91
2022-11-14T07:04:46.745Z,815.88
2022-11-14T07:05:46.752Z,815.93
2022-11-14T07:06:46.798Z,815.96
2022-11-14T07:07:46.765Z,815.97
2022-11-14T07:08:46.774Z,815.97
2022-11-14T07:09:46.778Z,816.09
2022-11-14T07:10:46.784Z,816.06
2022-11-14T07:11:46.814Z,816.06
2022-11-14T07:12:46.797Z,816.07
2022-11-14T07:13:46.801Z,816.05
2022-11-14T07:14:46.814Z,816.03
2022-11-14T07:15:46.816Z,816.04
2022-11-14T07:16:46.823Z,816.01
2022-11-14T07:17:46.831Z,816.00
2022-11-14T07:18:46.839Z,816.00
2022-11-14T07:19:46.838Z,816.03
2022-11-14T07:20:46.852Z,816.03
2022-11-14T07:21:46.853Z,816.01
2022-11-14T07:22:46.867Z,816.05
2022-11-14T07:23:46.867Z,816.00
2022-11-14T07:24:46.873Z,816.03
2022-11-14T07:25:46.879Z,816.01
2022-11-14T07:26:46.892Z,815.98
2022-11-14T07:27:46.936Z,816.03
2022-11-14T07:28:51.825Z,816.04
2022-11-14T07:29:46.906Z,816.07
2022-11-14T07:30:46.914Z,816.13
2022-11-14T07:31:46.918Z,816.13
2022-11-14T07:32:46.934Z,816.17
2022-11-14T07:33:46.941Z,816.18
2022-11-14T07:34:46.943Z,816.19
2022-11-14T07:35:46.944Z,816.22
2022-11-14T07:36:46.953Z,816.20
2022-11-14T07:37:46.957Z,816.20
2022-11-14T07:38:46.968Z,816.18
2022-11-14T07:39:46.974Z,816.13
2022-11-14T07:40:47.001Z,816.14
2022-11-14T07:41:46.984Z,816.11
2022-11-14T07:42:46.991Z,816.14
2022-11-14T07:43:47.020Z,816.15
2022-11-14T07:44:47.012Z,816.17
2022-11-14T07:45:47.010Z,816.23
2022-11-14T07:46:47.017Z,816.26
2022-11-14T07:47:47.022Z,816.22
2022-11-14T07:48:47.030Z,816.21
2022-11-14T07:49:47.037Z,816.22
2022-11-14T07:50:47.064Z,816.22
2022-11-14T07:51:47.048Z,816.23
2022-11-14T07:52:47.070Z,816.27
2022-11-14T07:53:47.064Z,816.28
2022-11-14T07:54:47.075Z,816.26
2022-11-14T07:55:47.076Z,816.26
2022-11-14T07:56:47.082Z,816.22
2022-11-14T07:57:49.344Z,816.20
2022-11-14T07:58:47.101Z,816.20
2022-11-14T07:59:47.124Z,816.17
2022-11-14T08:00:47.200Z,816.22
2022-11-14T08:01:47.115Z,816.19
2022-11-14T08:02:47.123Z,816.25
2022-11-14T08:03:47.127Z,816.28
2022-11-14T08:04:47.136Z,816.28
2022-11-14T08:05:47.142Z,816.23
2022-11-14T08:06:47.213Z,816.22
2022-11-14T08:07:47.155Z,816.19
2022-11-14T08:08:47.162Z,816.22
2022-11-14T08:09:47.179Z,816.25
2022-11-14T08:10:47.175Z,816.25
2022-11-14T08:11:47.181Z,816.23
2022-11-14T08:12:56.271Z,816.21
2022-11-14T08:13:47.195Z,816.23
2022-11-14T08:14:47.208Z,816.24
2022-11-14T08:15:47.232Z,816.27
2022-11-14T08:16:47.218Z,816.29
2022-11-14T08:17:47.223Z,816.27
2022-11-14T08:18:47.237Z,816.29
2022-11-14T08:19:47.235Z,816.27
2022-11-14T08:20:47.242Z,816.27
2022-11-14T08:21:47.257Z,816.30
2022-11-14T08:22:47.257Z,816.33
2022-11-14T08:23:47.266Z,816.32
2022-11-14T08:24:47.324Z,816.30
2022-11-14T08:25:47.284Z,816.29
2022-11-14T08:26:47.335Z,816.28
2022-11-14T08:27:47.289Z,816.25
2022-11-14T08:28:47.296Z,816.25
2022-11-14T08:29:47.310Z,816.27
2022-11-14T08:30:47.318Z,816.24
2022-11-14T08:31:47.336Z,816.30
2022-11-14T08:32:47.327Z,816.32
2022-11-14T08:33:47.331Z,816.35
2022-11-14T08:34:47.347Z,816.32
2022-11-14T08:35:47.346Z,816.34
2022-11-14T08:36:47.432Z,816.34
2022-11-14T08:37:47.358Z,816.37
2022-11-14T08:38:48.672Z,816.42
2022-11-14T08:39:47.373Z,816.40
2022-11-14T08:40:47.384Z,816.42
2022-11-14T08:41:47.385Z,816.38
2022-11-14T08:42:47.395Z,816.37
2022-11-14T08:43:47.400Z,816.46
2022-11-14T08:44:51.842Z,816.39
2022-11-14T08:45:47.414Z,816.45
2022-11-14T08:46:47.424Z,816.45
2022-11-14T08:47:47.445Z,816.40
2022-11-14T08:48:47.438Z,816.46
2022-11-14T08:49:47.442Z,816.43
2022-11-14T08:50:47.448Z,816.46
2022-11-14T08:51:47.455Z,816.45
2022-11-14T08:52:47.464Z,816.43
2022-11-14T08:53:47.469Z,816.45
2022-11-14T08:54:47.481Z,816.43
2022-11-14T08:55:47.482Z,816.47
2022-11-14T08:56:47.501Z,816.47
2022-11-14T08:57:49.732Z,816.49
2022-11-14T08:58:47.503Z,816.49
2022-11-14T08:59:47.509Z,816.50
2022-11-14T09:00:47.522Z,816.51
2022-11-14T09:01:47.523Z,816.51
2022-11-14T09:02:47.588Z,816.53
2022-11-14T09:03:47.745Z,816.52
2022-11-14T09:04:47.596Z,816.52
2022-11-14T09:05:47.552Z,816.52
2022-11-14T09:06:47.598Z,816.54
2022-11-14T09:07:47.572Z,816.55
2022-11-14T09:08:47.575Z,816.53
2022-11-14T09:09:47.582Z,816.59
2022-11-14T09:10:47.600Z,816.61
2022-11-14T09:11:47.593Z,816.56
2022-11-14T09:12:47.604Z,816.57
2022-11-14T09:13:47.608Z,816.58
2022-11-14T09:14:47.617Z,816.58
2022-11-14T09:15:47.623Z,816.62
2022-11-14T09:16:47.630Z,816.61
2022-11-14T09:17:47.637Z,816.63
2022-11-14T09:18:47.649Z,816.60
2022-11-14T09:19:47.672Z,816.63
2022-11-14T09:20:47.666Z,816.61
2022-11-14T09:21:47.667Z,816.63
2022-11-14T09:22:47.676Z,816.56
2022-11-14T09:23:47.680Z,816.59
2022-11-14T09:24:47.695Z,816.64
2022-11-14T09:25:47.696Z,816.64
2022-11-14T09:26:52.061Z,816.63
2022-11-14T09:27:47.708Z,816.62
2022-11-14T09:28:47.722Z,816.69
2022-11-14T09:29:47.751Z,816.72
2022-11-14T09:30:47.731Z,816.70
2022-11-14T09:31:47.738Z,816.73
2022-11-14T09:32:47.747Z,816.73
2022-11-14T09:33:47.753Z,816.74
2022-11-14T09:34:47.762Z,816.72
2022-11-14T09:35:47.799Z,816.72
2022-11-14T09:36:47.778Z,816.71
2022-11-14T09:37:47.782Z,816.73
2022-11-14T09:38:47.793Z,816.75
2022-11-14T09:39:47.798Z,816.74
2022-11-14T09:40:47.806Z,816.72
2022-11-14T09:41:47.811Z,816.74
2022-11-14T09:42:47.822Z,816.69
2022-11-14T09:43:47.827Z,816.74
2022-11-14T09:44:47.839Z,816.74
2022-11-14T09:45:47.848Z,816.77
2022-11-14T09:46:47.852Z,816.76
2022-11-14T09:47:47.856Z,816.73
2022-11-14T09:48:47.864Z,816.77
2022-11-14T09:49:47.867Z,816.74
2022-11-14T09:50:47.877Z,816.72
2022-11-14T09:51:47.902Z,816.75
2022-11-14T09:52:47.892Z,816.76
2022-11-14T09:53:47.906Z,816.79
2022-11-14T09:54:47.911Z,816.79
2022-11-14T09:55:47.911Z,816.82
2022-11-14T09:56:47.920Z,816.76
2022-11-14T09:57:47.929Z,816.76
2022-11-14T09:58:47.932Z,816.78
2022-11-14T09:59:47.940Z,816.80
2022-11-14T10:00:47.946Z,816.79
2022-11-14T10:01:47.977Z,816.83
2022-11-14T10:02:47.961Z,816.82
2022-11-14T10:03:47.968Z,816.83
2022-11-14T10:04:47.976Z,816.85
2022-11-14T10:05:47.980Z,816.85
2022-11-14T10:06:48.007Z,816.84
2022-11-14T10:07:48.016Z,816.85
2022-11-14T10:08:48.006Z,816.85
2022-11-14T10:09:48.009Z,816.85
2022-11-14T10:10:48.017Z,816.83
2022-11-14T10:11:48.034Z,816.86
2022-11-14T10:12:48.033Z,816.87
2022-11-14T10:13:48.037Z,816.85
2022-11-14T10:14:48.048Z,816.86
2022-11-14T10:15:48.050Z,816.86
2022-11-14T10:16:48.060Z,816.86
2022-11-14T10:17:48.066Z,816.87
2022-11-14T10:18:48.069Z,816.89
2022-11-14T10:19:48.081Z,816.89
2022-11-14T10:20:48.090Z,816.89
2022-11-14T10:21:48.099Z,816.87
2022-11-14T10:22:48.100Z,816.86
2022-11-14T10:23:48.128Z,816.86
2022-11-14T10:24:48.115Z,816.85
2022-11-14T10:25:48.127Z,816.85
2022-11-14T10:26:48.129Z,816.88
2022-11-14T10:27:51.285Z,816.92
2022-11-14T10:28:48.174Z,816.86
2022-11-14T10:29:48.180Z,816.86
2022-11-14T10:30:48.163Z,816.91
2022-11-14T10:31:48.167Z,816.90
2022-11-14T10:32:48.173Z,816.87
2022-11-14T10:33:48.182Z,816.90
2022-11-14T10:34:48.188Z,816.91
2022-11-14T10:35:48.198Z,816.86
2022-11-14T10:36:48.199Z,816.84
2022-11-14T10:37:48.217Z,816.81
2022-11-14T10:38:48.230Z,816.87
2022-11-14T10:39:48.257Z,816.89
2022-11-14T10:40:48.228Z,816.93
2022-11-14T10:41:57.889Z,816.96
2022-11-14T10:42:48.240Z,816.89
2022-11-14T10:43:48.255Z,816.87
2022-11-14T10:44:48.259Z,816.83
2022-11-14T10:45:48.268Z,816.81
2022-11-14T10:46:48.272Z,816.83
2022-11-14T10:47:48.281Z,816.81
2022-11-14T10:48:48.286Z,816.85
2022-11-14T10:49:48.293Z,816.84
2022-11-14T10:50:48.299Z,816.86
2022-11-14T10:51:48.308Z,816.81
2022-11-14T10:52:48.319Z,816.84
2022-11-14T10:53:48.322Z,816.82
2022-11-14T10:54:48.327Z,816.82
2022-11-14T10:56:03.715Z,816.83
2022-11-14T10:56:48.342Z,816.87
2022-11-14T10:57:48.351Z,816.84
2022-11-14T10:58:49.932Z,816.83
2022-11-14T10:59:48.365Z,816.85
2022-11-14T11:00:48.400Z,816.83
2022-11-14T11:01:48.379Z,816.85
2022-11-14T11:02:48.388Z,816.86
2022-11-14T11:03:48.501Z,816.86
2022-11-14T11:04:48.400Z,816.85
2022-11-14T11:05:48.415Z,816.83
2022-11-14T11:06:48.427Z,816.83
2022-11-14T11:07:48.420Z,816.84
2022-11-14T11:08:48.708Z,816.86
2022-11-14T11:09:48.488Z,816.87
2022-11-14T11:10:48.474Z,816.85
2022-11-14T11:11:48.467Z,816.84
2022-11-14T11:12:48.500Z,816.86
2022-11-14T11:13:48.464Z,816.89
2022-11-14T11:14:48.471Z,816.83
2022-11-14T11:15:48.478Z,816.84
2022-11-14T11:16:48.482Z,816.81
2022-11-14T11:17:48.494Z,816.80
2022-11-14T11:18:50.713Z,816.83
2022-11-14T11:19:48.504Z,816.83
2022-11-14T11:20:48.513Z,816.84
2022-11-14T11:21:48.660Z,816.81
2022-11-14T11:22:48.526Z,816.78
2022-11-14T11:23:48.534Z,816.74
2022-11-14T11:24:48.638Z,816.74
2022-11-14T11:25:48.550Z,816.74
2022-11-14T11:26:48.552Z,816.72
2022-11-14T11:27:48.583Z,816.75
2022-11-14T11:28:48.570Z,816.75
2022-11-14T11:29:48.577Z,816.79
2022-11-14T11:30:54.197Z,816.77
2022-11-14T11:31:48.589Z,816.76
2022-11-14T11:32:48.647Z,816.81
2022-11-14T11:33:48.608Z,816.79
2022-11-14T11:34:48.611Z,816.76
2022-11-14T11:35:48.628Z,816.80
2022-11-14T11:36:48.623Z,816.80
2022-11-14T11:37:48.634Z,816.77
2022-11-14T11:38:48.640Z,816.83
2022-11-14T11:39:48.648Z,816.82
2022-11-14T11:40:48.654Z,816.80
2022-11-14T11:43:51.326Z,816.80
2022-11-14T11:44:48.682Z,816.77
2022-11-14T11:45:48.701Z,816.76
2022-11-14T11:46:48.697Z,816.79
2022-11-14T11:47:48.711Z,816.77
2022-11-14T11:48:48.714Z,816.81
2022-11-14T11:49:53.410Z,816.79
2022-11-14T11:50:48.727Z,816.78
2022-11-14T11:51:48.744Z,816.76
2022-11-14T11:52:48.749Z,816.82
2022-11-14T11:53:48.754Z,816.78
2022-11-14T11:54:48.757Z,816.77
2022-11-14T11:55:48.773Z,816.79
2022-11-14T11:56:48.775Z,816.81
2022-11-14T11:57:48.782Z,816.81
2022-11-14T11:58:48.787Z,816.81
2022-11-14T11:59:48.815Z,816.79
2022-11-14T12:00:48.802Z,816.83
2022-11-14T12:01:48.911Z,816.77
2022-11-14T12:02:50.289Z,816.79
2022-11-14T12:03:48.960Z,816.81
2022-11-14T12:04:48.833Z,816.80
2022-11-14T12:05:48.843Z,816.78
2022-11-14T12:06:48.869Z,816.76
2022-11-14T12:07:48.865Z,816.76
2022-11-14T12:08:48.870Z,816.82
2022-11-14T12:10:09.919Z,816.80
2022-11-14T12:10:48.880Z,816.79
2022-11-14T12:11:48.890Z,816.80
2022-11-14T12:12:48.895Z,816.80
2022-11-14T12:13:48.906Z,816.78
2022-11-14T12:14:48.912Z,816.79
2022-11-14T12:15:48.941Z,816.80
2022-11-14T12:16:48.927Z,816.75
2022-11-14T12:17:48.939Z,816.78
2022-11-14T12:18:48.941Z,816.70
2022-11-14T12:19:48.953Z,816.73
2022-11-14T12:20:48.959Z,816.77
2022-11-14T12:21:50.990Z,816.75
2022-11-14T12:22:48.974Z,816.76
2022-11-14T12:23:48.988Z,816.74
2022-11-14T12:24:48.989Z,816.72
2022-11-14T12:25:48.997Z,816.72
2022-11-14T12:26:49.008Z,816.73
2022-11-14T12:27:49.077Z,816.75
2022-11-14T12:28:49.051Z,816.71
2022-11-14T12:29:49.033Z,816.71
2022-11-14T12:30:49.035Z,816.69